Overview Statistics Trail Chart Weather Telemetry Raw packets
 

This is the latest recevied weather packets stored in our database for station/object ED1ZAI-13. If no packets are shown the sender has not sent any weather packets the latest 10 day(s).

<< 14 15 16 17 18 19 20 >>
Time Temp. Humidity Pressure Rain* Wind** Luminosity Snow
1788392262 21.11° C 53% 1016.8 hPa - - - -
1788391662 21.11° C 52% 1017.2 hPa - - - -
1788391183 21.67° C 52% 1017.6 hPa - - - -
1788390432 21.11° C 52% 1017.4 hPa - - - -
1788389831 21.67° C 52% 1017.5 hPa - - - -
1788389231 21.67° C 52% 1017.2 hPa - - - -
1788388633 21.67° C 52% 1017 hPa - - - -
1788388032 21.67° C 52% 1016.9 hPa - - - -
1788387432 22.22° C 51% 1017.1 hPa - - - -
1788386832 22.22° C 51% 1017 hPa - - - -
1788382630 23.33° C 45% 1021.1 hPa - - - -
1788382032 23.33° C 43% 1021.6 hPa - - - -
1788381431 23.89° C 42% 1021.9 hPa - - - -
1788380831 23.89° C 41% 1022 hPa - - - -
1788380231 23.89° C 42% 1021.7 hPa - - - -
1788379631 23.89° C 43% 1021.2 hPa - - - -
1788379030 24.44° C 42% 1021.4 hPa - - - -
1788378430 24.44° C 42% 1021 hPa - - - -
1788377832 25° C 41% 1021.4 hPa - - - -
1788377232 25.56° C 40% 1021.1 hPa - - - -
1788376631 25.56° C 39% 1021.4 hPa - - - -
1788376031 26.11° C 38% 1021.8 hPa - - - -
1788375285 26.11° C 36% 1022.1 hPa - - - -
1788374684 26.67° C 35% 1022.3 hPa - - - -
1788374084 27.22° C 34% 1022.4 hPa - - - -

* Rain since midnight (hover to see other rain measurements)
** Current wind speed in m/s (hover to see current wind gust speed)